Toquerville, Utah
Current Conditions -  °F | °C
As of 7:55 PM on Friday 24 Oct 2014 (Local Time) from KSGU Reporting Station
Clear Clear  
Wind Chill: 73°   Ceiling: Unl
Heat Index: 73°   Visibility: 10mi
Dew Point: 36°   Wind: 6mph
Humidity: 25%   Direction: 210°SSW
Pressure: 30.07"   Gusts: NA
Location:  37.25°N, 113.28°W
Report Text: KSGU 250155Z AUTO 21005KT 10SM CLR 23/02 A3007 RMK AO1
Loading
Personal Weather Stations






























Interactive Weather Map
Tropical Storm Tracking
New forecast layout! Learn more

10-Day Weather Forecast

Advertisements
Track Severe Weather on mobile